Time;durP1;ratioP1;P1;durP2;ratioP2;P2;SDS_P1;SDS_P2;PMS_P1;PMS_P2;Temp;Humidity;BMP_temperature;BMP_pressure;BME280_temperature;BME280_humidity;BME280_pressure;Samples;Min_cycle;Max_cycle;Signal;HPM_P1;HPM_P2
2024/01/09 00:00:55;;;;;;;253.98;65.00;;;;;;;-6.39;100.00;99063.50;4998325;28;20033;-58
2024/01/09 00:03:20;;;;;;;316.40;152.63;;;;;;;-6.54;100.00;99056.44;5005732;28;20652;-57
2024/01/09 00:05:45;;;;;;;441.73;242.30;;;;;;;-6.46;100.00;99054.53;5003596;28;20045;-56
2024/01/09 00:08:11;;;;;;;498.35;343.58;;;;;;;-6.47;99.64;99053.63;4998049;28;20040;-58
2024/01/09 00:10:36;;;;;;;360.60;186.02;;;;;;;-6.49;99.17;99045.06;4997946;28;20394;-57
2024/01/09 00:13:04;;;;;;;310.60;140.38;;;;;;;-6.50;99.19;99048.31;5000279;28;20033;-58
2024/01/09 00:15:29;;;;;;;226.32;64.13;;;;;;;-6.50;98.88;99053.38;5004202;28;20062;-56
2024/01/09 00:17:54;;;;;;;380.48;180.02;;;;;;;-6.56;99.27;99051.25;5001388;28;20036;-58
2024/01/09 00:20:20;;;;;;;254.65;100.43;;;;;;;-6.57;99.37;99052.00;5003829;28;20087;-58
2024/01/09 00:22:45;;;;;;;274.67;114.13;;;;;;;-6.62;99.54;99052.38;5007774;28;20133;-57
2024/01/09 00:25:11;;;;;;;368.25;160.05;;;;;;;-6.55;99.74;99057.19;5004771;28;20188;-56
2024/01/09 00:27:36;;;;;;;305.35;136.23;;;;;;;-6.50;99.28;99047.44;5003685;28;20059;-57
2024/01/09 00:30:02;;;;;;;293.55;78.78;;;;;;;-6.54;98.85;99043.75;5002093;28;20029;-57
2024/01/09 00:32:29;;;;;;;303.52;89.93;;;;;;;-6.54;98.63;99041.22;5001715;28;20041;-58
2024/01/09 00:34:54;;;;;;;352.85;177.52;;;;;;;-6.65;99.25;99044.56;5003115;28;20025;-59
2024/01/09 00:37:20;;;;;;;238.95;87.03;;;;;;;-6.67;99.79;99040.25;5006056;28;20038;-58
2024/01/09 00:39:45;;;;;;;257.13;65.68;;;;;;;-6.60;100.00;99040.75;5005436;28;20402;-56
2024/01/09 00:42:11;;;;;;;286.40;123.82;;;;;;;-6.67;99.94;99034.31;5004939;28;20152;-55
2024/01/09 00:44:36;;;;;;;311.27;94.32;;;;;;;-6.55;99.72;99044.53;5004755;28;20374;-58
2024/01/09 00:47:02;;;;;;;412.63;215.65;;;;;;;-6.60;99.22;99043.28;5000336;28;20100;-58
2024/01/09 00:49:27;;;;;;;255.35;67.45;;;;;;;-6.58;99.04;99039.22;5000383;28;20870;-58
2024/01/09 00:51:53;;;;;;;271.00;64.55;;;;;;;-6.67;99.58;99036.84;5001802;28;20042;-57
2024/01/09 00:54:19;;;;;;;256.20;69.97;;;;;;;-6.58;100.00;99036.69;5007053;28;20422;-56
2024/01/09 00:56:45;;;;;;;253.73;75.97;;;;;;;-6.61;99.54;99041.53;5005281;28;20528;-58
2024/01/09 00:59:10;;;;;;;249.15;77.15;;;;;;;-6.54;99.38;99037.06;4962645;28;20030;-56
2024/01/09 01:01:35;;;;;;;324.92;68.45;;;;;;;-6.57;99.48;99038.47;5000401;28;20119;-57
2024/01/09 01:04:01;;;;;;;280.95;72.05;;;;;;;-6.71;100.00;99034.81;4998804;28;20022;-57
2024/01/09 01:06:26;;;;;;;334.77;93.40;;;;;;;-6.74;99.90;99035.44;4998609;28;20556;-58
2024/01/09 01:08:51;;;;;;;294.98;69.80;;;;;;;-6.78;100.00;99030.91;4994571;28;20327;-57
2024/01/09 01:11:17;;;;;;;360.52;154.50;;;;;;;-6.84;100.00;99041.41;4998191;28;20033;-58
2024/01/09 01:13:42;;;;;;;297.33;87.45;;;;;;;-6.67;100.00;99039.38;4998003;28;20468;-57
2024/01/09 01:16:07;;;;;;;352.02;163.32;;;;;;;-6.75;100.00;99030.25;5000043;28;20644;-59
2024/01/09 01:18:32;;;;;;;495.02;305.23;;;;;;;-6.88;100.00;99041.91;5000826;28;20026;-58
2024/01/09 01:20:58;;;;;;;379.08;158.93;;;;;;;-6.82;100.00;99050.00;4997762;28;20190;-57
2024/01/09 01:23:23;;;;;;;349.48;156.50;;;;;;;-6.84;100.00;99037.97;4994888;28;20064;-56
2024/01/09 01:25:48;;;;;;;341.33;82.70;;;;;;;-6.86;100.00;99037.88;4998895;28;20048;-57
2024/01/09 01:28:14;;;;;;;388.25;198.20;;;;;;;-6.81;100.00;99040.75;4997902;28;20537;-58
2024/01/09 01:30:39;;;;;;;363.65;132.88;;;;;;;-6.81;100.00;99043.28;4999555;28;20216;-57
2024/01/09 01:33:05;;;;;;;441.10;195.93;;;;;;;-6.83;100.00;99047.34;4996718;28;20021;-59
2024/01/09 01:35:30;;;;;;;362.58;198.25;;;;;;;-6.74;99.97;99039.63;4998459;28;20053;-57
2024/01/09 01:37:55;;;;;;;394.25;102.25;;;;;;;-6.72;99.99;99036.44;4999719;28;20025;-58
2024/01/09 01:40:20;;;;;;;312.35;112.07;;;;;;;-6.87;99.76;99045.31;5002580;28;20032;-57
2024/01/09 01:42:46;;;;;;;364.25;126.70;;;;;;;-6.82;100.00;99044.94;4998833;28;20108;-57
2024/01/09 01:45:16;;;;;;;384.02;105.00;;;;;;;-6.89;100.00;99050.25;4998520;28;20067;-56
2024/01/09 01:47:46;;;;;;;303.63;68.63;;;;;;;-6.86;100.00;99042.03;4998053;28;20120;-58
2024/01/09 01:50:13;;;;;;;326.73;73.15;;;;;;;-6.89;100.00;99041.78;4995288;28;20022;-57
2024/01/09 01:52:41;;;;;;;381.25;183.60;;;;;;;-6.88;100.00;99043.53;4994566;28;20022;-57
2024/01/09 01:55:09;;;;;;;336.20;63.70;;;;;;;-6.86;100.00;99042.94;4998739;28;20054;-56
2024/01/09 01:57:36;;;;;;;356.33;130.00;;;;;;;-6.90;100.00;99045.06;4995819;28;20120;-57
2024/01/09 02:00:02;;;;;;;385.75;164.20;;;;;;;-6.93;100.00;99036.47;4996053;28;20037;-55
2024/01/09 02:02:29;;;;;;;307.33;128.70;;;;;;;-6.89;100.00;99041.78;4997378;28;20060;-57
2024/01/09 02:04:54;;;;;;;327.08;102.15;;;;;;;-6.93;100.00;99033.06;5000893;28;20030;-58
2024/01/09 02:07:23;;;;;;;340.48;173.82;;;;;;;-6.84;100.00;99038.88;4995791;28;20391;-58
2024/01/09 02:09:51;;;;;;;332.15;162.98;;;;;;;-6.96;100.00;99030.25;4998484;28;20057;-56
2024/01/09 02:12:17;;;;;;;336.15;137.18;;;;;;;-7.00;100.00;99026.59;4996884;28;20033;-57
2024/01/09 02:14:42;;;;;;;321.95;77.35;;;;;;;-6.91;100.00;99031.53;4996505;28;20304;-58
2024/01/09 02:17:08;;;;;;;378.70;115.45;;;;;;;-7.00;100.00;99039.25;4996810;28;20460;-57
2024/01/09 02:19:34;;;;;;;445.33;175.57;;;;;;;-6.96;100.00;99032.78;4995314;28;20037;-57
2024/01/09 02:21:59;;;;;;;343.65;65.13;;;;;;;-6.83;100.00;99037.22;4996407;28;20504;-56
2024/01/09 02:24:25;;;;;;;288.45;62.47;;;;;;;-6.89;100.00;99031.66;4992023;28;20082;-58
2024/01/09 02:27:00;;;;;;;344.15;109.82;;;;;;;-6.96;100.00;99031.16;4993162;28;20042;-57
2024/01/09 02:29:28;;;;;;;314.85;96.65;;;;;;;-7.04;100.00;99024.56;4999246;28;20038;-58
2024/01/09 02:31:54;;;;;;;436.27;196.30;;;;;;;-6.98;100.00;99020.00;4996107;28;20421;-56
2024/01/09 02:34:20;;;;;;;269.65;58.40;;;;;;;-6.96;100.00;99018.50;4998192;28;20038;-58
2024/01/09 02:36:46;;;;;;;264.52;89.38;;;;;;;-7.04;100.00;99024.56;4997589;28;20084;-56
2024/01/09 02:39:11;;;;;;;328.85;102.25;;;;;;;-7.09;100.00;99023.31;4999881;28;20508;-55
2024/01/09 02:41:38;;;;;;;296.80;67.18;;;;;;;-6.96;100.00;99017.63;4997633;28;20490;-56
2024/01/09 02:44:03;;;;;;;328.33;61.72;;;;;;;-6.85;100.00;99015.97;4999442;28;20544;-56
2024/01/09 02:46:28;;;;;;;289.58;69.20;;;;;;;-6.88;100.00;99011.53;4993188;28;20515;-57
2024/01/09 02:48:54;;;;;;;274.77;64.20;;;;;;;-6.96;100.00;99008.41;4993277;28;20096;-56
2024/01/09 02:51:19;;;;;;;272.85;63.17;;;;;;;-7.06;100.00;99010.91;4997055;28;20447;-57
2024/01/09 02:53:45;;;;;;;313.88;83.95;;;;;;;-6.90;100.00;99004.59;4995141;28;20057;-59
2024/01/09 02:56:10;;;;;;;303.58;64.68;;;;;;;-6.93;100.00;99003.59;4994558;28;20053;-58
2024/01/09 02:58:36;;;;;;;296.92;59.97;;;;;;;-7.02;100.00;98994.34;4995330;28;20052;-56
2024/01/09 03:01:01;;;;;;;465.48;184.70;;;;;;;-7.12;100.00;98995.22;4996331;28;20043;-57
2024/01/09 03:03:27;;;;;;;274.58;68.32;;;;;;;-7.06;100.00;98988.13;4997879;28;20306;-59
2024/01/09 03:05:52;;;;;;;339.88;115.30;;;;;;;-7.13;100.00;98990.94;4997015;28;20065;-56
2024/01/09 03:08:17;;;;;;;290.23;64.88;;;;;;;-7.17;100.00;99004.97;4999012;28;20116;-55
2024/01/09 03:10:42;;;;;;;427.80;257.88;;;;;;;-7.20;100.00;99004.72;4997586;28;20148;-59
2024/01/09 03:13:08;;;;;;;331.65;59.35;;;;;;;-6.95;100.00;99002.56;4995412;28;20057;-57
2024/01/09 03:15:33;;;;;;;271.40;65.30;;;;;;;-6.91;100.00;98995.25;4991698;28;20054;-57
2024/01/09 03:18:02;;;;;;;365.70;66.28;;;;;;;-6.94;100.00;99001.78;4996655;28;20340;-58
2024/01/09 03:20:27;;;;;;;254.73;60.30;;;;;;;-7.05;100.00;98997.53;4994515;28;20041;-57
2024/01/09 03:22:52;;;;;;;381.95;209.82;;;;;;;-7.07;100.00;98988.91;4996109;28;20044;-57
2024/01/09 03:25:18;;;;;;;313.80;101.95;;;;;;;-7.08;100.00;99002.31;4995701;28;20044;-56
2024/01/09 03:27:43;;;;;;;406.80;173.55;;;;;;;-7.06;100.00;99009.28;4998320;28;20029;-58
2024/01/09 03:30:09;;;;;;;482.77;227.15;;;;;;;-7.16;100.00;98999.16;4996332;28;20038;-58
2024/01/09 03:32:34;;;;;;;603.60;398.35;;;;;;;-7.12;100.00;99002.81;4997399;28;20385;-56
2024/01/09 03:34:59;;;;;;;295.27;62.25;;;;;;;-7.02;100.00;98997.75;4992325;28;20663;-57
2024/01/09 03:37:25;;;;;;;334.85;126.82;;;;;;;-7.02;100.00;99005.34;4996780;28;20653;-56
2024/01/09 03:39:50;;;;;;;270.42;72.88;;;;;;;-6.94;100.00;99001.78;4994743;28;20029;-56
2024/01/09 03:42:15;;;;;;;282.67;72.38;;;;;;;-6.95;99.82;99001.66;4994751;28;20248;-58
2024/01/09 03:44:41;;;;;;;363.85;180.50;;;;;;;-7.04;99.55;99011.03;4995082;28;20045;-58
2024/01/09 03:47:06;;;;;;;369.33;104.53;;;;;;;-7.18;100.00;99005.72;4994504;28;20095;-57
2024/01/09 03:49:31;;;;;;;501.80;185.05;;;;;;;-6.99;100.00;99000.53;4998608;28;20025;-55
2024/01/09 03:51:58;;;;;;;378.13;156.82;;;;;;;-6.93;99.45;99007.75;5000852;28;20099;-55
2024/01/09 03:54:23;;;;;;;371.83;192.95;;;;;;;-7.01;99.60;99002.06;5002543;28;20447;-58
2024/01/09 03:56:49;;;;;;;293.90;60.33;;;;;;;-6.96;99.32;99004.97;4997369;28;20141;-62
2024/01/09 03:59:14;;;;;;;358.95;151.23;;;;;;;-6.98;99.36;99014.94;4995327;28;20042;-58
2024/01/09 04:01:40;;;;;;;261.55;53.85;;;;;;;-6.91;98.65;99011.28;4999813;28;20762;-57
2024/01/09 04:04:05;;;;;;;461.83;140.85;;;;;;;-6.95;98.59;99006.72;4995006;28;20489;-57
2024/01/09 04:06:31;;;;;;;229.18;56.08;;;;;;;-6.99;98.25;99014.81;4999832;28;20045;-56
2024/01/09 04:08:56;;;;;;;309.52;70.72;;;;;;;-7.12;98.63;99018.00;4998399;28;20354;-56
2024/01/09 04:11:21;;;;;;;525.95;381.55;;;;;;;-7.03;99.44;99013.69;4999215;28;20050;-58
2024/01/09 04:13:46;;;;;;;327.05;133.60;;;;;;;-7.04;98.84;99017.00;4998847;28;20141;-56
2024/01/09 04:16:12;;;;;;;329.90;62.53;;;;;;;-6.91;98.04;99023.06;4998291;28;20052;-57
2024/01/09 04:18:38;;;;;;;356.30;94.25;;;;;;;-6.94;97.92;99016.13;5002202;28;20029;-58
2024/01/09 04:21:03;;;;;;;348.42;89.28;;;;;;;-7.04;98.33;99023.69;5001266;28;20422;-56
2024/01/09 04:23:29;;;;;;;473.13;300.15;;;;;;;-6.97;97.98;99015.84;5001087;28;20462;-58
2024/01/09 04:25:54;;;;;;;418.27;211.93;;;;;;;-6.95;97.78;99020.28;4999586;28;20163;-57
2024/01/09 04:28:19;;;;;;;265.80;68.18;;;;;;;-6.87;97.37;99030.16;4998449;28;20058;-56
2024/01/09 04:30:45;;;;;;;421.48;245.90;;;;;;;-6.96;97.36;99025.19;4995788;28;20038;-58
2024/01/09 04:33:10;;;;;;;361.70;70.72;;;;;;;-7.03;97.42;99022.91;4999937;28;20160;-58
2024/01/09 04:35:36;;;;;;;302.80;93.05;;;;;;;-6.99;96.85;99022.41;4998469;28;20053;-56
2024/01/09 04:38:01;;;;;;;342.10;78.07;;;;;;;-6.95;96.64;99012.69;5001738;28;20029;-57
2024/01/09 04:40:27;;;;;;;679.40;416.20;;;;;;;-6.85;96.21;99009.28;5001162;28;20091;-57
2024/01/09 04:42:53;;;;;;;297.48;67.18;;;;;;;-6.90;96.01;99009.66;4998211;28;20509;-56
2024/01/09 04:45:18;;;;;;;476.08;277.05;;;;;;;-6.97;95.86;99016.75;4998039;28;20217;-57
2024/01/09 04:47:43;;;;;;;316.83;116.85;;;;;;;-6.96;95.36;99013.44;5000465;28;20044;-57
2024/01/09 04:50:09;;;;;;;358.17;90.97;;;;;;;-6.96;95.13;99012.56;4999119;28;20029;-58
2024/01/09 04:52:36;;;;;;;376.33;155.25;;;;;;;-6.86;94.81;99004.09;5000476;28;20057;-57
2024/01/09 04:55:02;;;;;;;395.15;97.82;;;;;;;-6.92;94.54;99001.94;4997197;28;20033;-57
2024/01/09 04:57:27;;;;;;;340.05;144.18;;;;;;;-6.98;94.70;99004.84;4997066;28;20042;-58
2024/01/09 04:59:53;;;;;;;322.88;113.10;;;;;;;-6.86;94.50;98999.03;4995289;28;20044;-57
2024/01/09 05:02:18;;;;;;;455.55;236.75;;;;;;;-6.90;94.04;99002.97;4996784;28;20172;-58
2024/01/09 05:04:43;;;;;;;351.88;134.32;;;;;;;-6.83;93.81;98996.75;4996848;28;20038;-58
2024/01/09 05:07:09;;;;;;;346.02;59.28;;;;;;;-6.85;93.87;98999.16;4998561;28;20420;-57
2024/01/09 05:09:34;;;;;;;409.13;126.43;;;;;;;-7.02;93.77;98995.22;4996626;28;20145;-56
2024/01/09 05:11:59;;;;;;;322.45;101.45;;;;;;;-6.99;93.81;98994.59;5000131;28;20034;-57
2024/01/09 05:14:25;;;;;;;294.30;63.55;;;;;;;-6.95;93.62;98994.97;5000987;28;20036;-58
2024/01/09 05:16:50;;;;;;;508.88;304.33;;;;;;;-6.96;93.70;98985.63;4997541;28;20315;-59
2024/01/09 05:19:15;;;;;;;314.48;63.13;;;;;;;-6.86;92.86;98992.34;4997826;28;20041;-58
2024/01/09 05:21:41;;;;;;;304.48;102.95;;;;;;;-6.93;93.28;98990.06;4997139;28;20062;-59
2024/01/09 05:24:06;;;;;;;367.42;112.45;;;;;;;-6.89;93.41;98991.19;4998680;28;20029;-56
2024/01/09 05:26:32;;;;;;;352.45;178.93;;;;;;;-6.80;92.55;98995.34;5003161;28;20583;-57
2024/01/09 05:28:57;;;;;;;464.67;267.38;;;;;;;-6.98;92.39;98991.31;5000249;28;20405;-58
2024/01/09 05:31:23;;;;;;;297.85;83.80;;;;;;;-6.94;92.08;98999.28;4995929;28;20030;-58
2024/01/09 05:33:48;;;;;;;279.48;74.95;;;;;;;-6.80;91.91;98991.91;4996080;28;20537;-57
2024/01/09 05:36:18;;;;;;;433.90;173.88;;;;;;;-6.80;90.90;98991.91;4996190;28;20867;-58
2024/01/09 05:38:44;;;;;;;298.58;79.72;;;;;;;-6.81;90.61;98998.66;4997029;28;20033;-57
2024/01/09 05:41:21;;;;;;;323.60;103.43;;;;;;;-6.90;90.31;99000.44;4998238;28;20088;-57
2024/01/09 05:43:48;;;;;;;398.50;219.00;;;;;;;-6.90;90.36;99004.59;5002283;28;20033;-57
2024/01/09 05:46:13;;;;;;;383.90;113.95;;;;;;;-6.90;90.19;99005.47;4990221;28;20398;-57
2024/01/09 05:48:40;;;;;;;304.70;90.28;;;;;;;-6.82;89.94;99006.09;4997988;28;20260;-57
2024/01/09 05:51:06;;;;;;;378.55;100.47;;;;;;;-6.85;89.90;99004.22;4996322;28;20576;-56
2024/01/09 05:53:31;;;;;;;327.48;70.85;;;;;;;-6.85;89.78;98990.66;4996676;28;20018;-58
2024/01/09 05:55:56;;;;;;;294.25;70.85;;;;;;;-6.81;88.99;99002.81;4999478;28;20128;-56
2024/01/09 05:58:21;;;;;;;288.05;108.03;;;;;;;-6.82;88.63;98993.44;4996514;28;20034;-57
2024/01/09 06:00:47;;;;;;;333.50;99.93;;;;;;;-6.89;88.81;98996.22;4996870;28;20049;-56
2024/01/09 06:03:12;;;;;;;350.58;71.50;;;;;;;-6.91;88.44;98992.72;4995000;28;20326;-56
2024/01/09 06:05:37;;;;;;;339.80;107.68;;;;;;;-6.87;88.24;98994.72;4996151;28;20088;-58
2024/01/09 06:08:03;;;;;;;356.15;116.78;;;;;;;-6.83;86.91;99000.16;4995299;28;20030;-57
2024/01/09 06:10:29;;;;;;;388.88;206.35;;;;;;;-6.75;86.34;98995.72;4995960;28;20048;-58
2024/01/09 06:12:54;;;;;;;275.13;57.47;;;;;;;-6.59;85.61;99002.91;4999679;28;20108;-57
2024/01/09 06:15:19;;;;;;;318.70;85.90;;;;;;;-6.59;84.90;98997.84;4994552;28;20043;-58
2024/01/09 06:17:45;;;;;;;337.70;171.45;;;;;;;-6.69;84.51;99005.44;4997216;28;20025;-58
2024/01/09 06:20:11;;;;;;;365.08;74.43;;;;;;;-6.76;85.09;99008.25;4995103;28;20362;-57
2024/01/09 06:22:36;;;;;;;336.05;93.90;;;;;;;-6.59;83.77;98996.97;4993291;28;20510;-58
2024/01/09 06:25:02;;;;;;;316.45;64.40;;;;;;;-6.69;82.98;99002.91;4993942;28;20030;-57
2024/01/09 06:27:27;;;;;;;281.45;75.00;;;;;;;-6.57;82.35;99005.56;4995139;28;20042;-58
2024/01/09 06:29:52;;;;;;;315.27;68.03;;;;;;;-6.57;81.98;99006.44;4994450;28;20053;-58
2024/01/09 06:32:17;;;;;;;385.95;109.55;;;;;;;-6.55;83.89;98998.97;4991732;28;20065;-57
2024/01/09 06:34:43;;;;;;;334.80;103.47;;;;;;;-6.44;82.55;99005.78;4994265;28;20022;-56
2024/01/09 06:37:08;;;;;;;464.30;153.63;;;;;;;-6.33;87.01;99001.59;4991283;28;20048;-57
2024/01/09 06:39:35;;;;;;;423.83;130.68;;;;;;;-6.22;94.09;99004.97;4993296;28;20124;-56
2024/01/09 06:42:01;;;;;;;363.27;114.15;;;;;;;-6.30;89.57;99003.47;4994930;28;20045;-58
2024/01/09 06:44:26;;;;;;;279.27;78.43;;;;;;;-6.34;88.67;99009.06;4995689;28;20029;-57
2024/01/09 06:46:51;;;;;;;295.92;75.53;;;;;;;-6.34;93.98;99004.00;4992992;28;20042;-58
2024/01/09 06:49:17;;;;;;;394.05;100.10;;;;;;;-6.53;89.28;99011.00;4994677;28;20540;-57
2024/01/09 06:51:43;;;;;;;276.45;70.00;;;;;;;-6.15;100.00;99012.31;4996225;28;20052;-56
2024/01/09 06:54:09;;;;;;;359.75;98.85;;;;;;;-6.33;93.35;99016.78;4996672;28;20025;-58
2024/01/09 06:56:34;;;;;;;340.67;104.82;;;;;;;-6.00;100.00;99011.69;4990625;28;20080;-57
2024/01/09 06:58:59;;;;;;;284.45;61.45;;;;;;;-6.11;91.38;99017.59;4998225;28;20166;-58
2024/01/09 07:01:26;;;;;;;297.50;108.22;;;;;;;-6.02;97.10;99011.56;4991123;28;20038;-57
2024/01/09 07:03:51;;;;;;;236.65;58.40;;;;;;;-5.84;100.00;99018.84;4996955;28;20029;-58
2024/01/09 07:06:17;;;;;;;291.33;68.90;;;;;;;-5.92;96.46;99020.78;4997007;28;20045;-58
2024/01/09 07:08:42;;;;;;;301.02;64.78;;;;;;;-5.88;100.00;99022.81;4995322;28;20021;-56
2024/01/09 07:11:07;;;;;;;387.60;68.60;;;;;;;-6.01;97.22;99020.06;4992560;28;20077;-57
2024/01/09 07:13:33;;;;;;;305.77;65.00;;;;;;;-6.13;88.66;99021.66;4996089;28;20431;-59
2024/01/09 07:15:58;;;;;;;299.27;74.82;;;;;;;-6.30;83.24;99018.66;4996344;28;20340;-56
2024/01/09 07:18:24;;;;;;;236.93;65.60;;;;;;;-6.47;81.29;99027.44;4999835;28;20030;-59
2024/01/09 07:20:49;;;;;;;301.70;68.47;;;;;;;-6.33;80.49;99026.91;4997849;28;20132;-57
2024/01/09 07:23:15;;;;;;;376.67;88.85;;;;;;;-6.35;78.58;99025.03;4996353;28;20022;-57
2024/01/09 07:25:40;;;;;;;342.35;68.07;;;;;;;-6.24;76.87;99016.63;4995909;28;20029;-60
2024/01/09 07:28:06;;;;;;;307.00;69.78;;;;;;;-6.19;75.77;99030.56;4994813;28;20038;-59
2024/01/09 07:30:31;;;;;;;280.55;64.40;;;;;;;-6.09;74.78;99031.28;4996052;28;20064;-57
2024/01/09 07:32:56;;;;;;;317.58;110.07;;;;;;;-6.18;74.83;99027.25;4996958;28;20033;-57
2024/01/09 07:35:22;;;;;;;382.40;68.03;;;;;;;-5.99;74.03;99035.41;4993578;28;20029;-60
2024/01/09 07:37:47;;;;;;;273.60;69.75;;;;;;;-5.59;73.92;99035.97;4995640;28;20134;-58
2024/01/09 07:40:12;;;;;;;362.52;76.88;;;;;;;-4.45;71.01;99042.72;4992384;28;20285;-58
2024/01/09 07:42:38;;;;;;;328.90;67.65;;;;;;;-3.36;66.57;99030.78;4995097;28;20034;-58
2024/01/09 07:45:03;;;;;;;320.55;67.32;;;;;;;-2.85;61.03;99034.22;4993902;28;20013;-59
2024/01/09 07:47:29;;;;;;;257.02;66.03;;;;;;;-3.94;61.19;99034.44;4992767;28;20042;-58
2024/01/09 07:49:55;;;;;;;374.35;99.72;;;;;;;-4.98;62.43;99051.56;4990370;28;20034;-60
2024/01/09 07:52:20;;;;;;;302.83;70.68;;;;;;;-4.88;63.98;99043.00;4989120;28;20030;-58
2024/01/09 07:54:45;;;;;;;333.77;59.30;;;;;;;-5.14;64.49;99046.09;4994185;28;20631;-58
2024/01/09 07:57:11;;;;;;;329.02;53.92;;;;;;;-5.03;64.58;99054.50;4991522;28;20038;-58
2024/01/09 07:59:36;;;;;;;655.65;397.48;;;;;;;-5.29;64.90;99048.34;4994573;28;20096;-56
2024/01/09 08:02:01;;;;;;;655.55;399.85;;;;;;;-5.29;65.15;99038.19;4996959;28;20061;-57
2024/01/09 08:04:27;;;;;;;281.77;60.47;;;;;;;-5.13;65.61;99033.53;4996269;28;20060;-58
2024/01/09 08:06:53;;;;;;;263.15;61.53;;;;;;;-5.03;64.47;99040.19;4995479;28;20060;-57
2024/01/09 08:09:19;;;;;;;366.83;108.60;;;;;;;-5.05;64.31;99036.63;4994875;28;20171;-60
2024/01/09 08:11:46;;;;;;;328.13;77.32;;;;;;;-5.28;64.33;99040.84;4994623;28;20034;-59
2024/01/09 08:14:12;;;;;;;415.20;124.75;;;;;;;-5.20;63.76;99043.09;4990221;28;20037;-58
2024/01/09 08:16:37;;;;;;;336.80;139.60;;;;;;;-5.18;63.58;99044.97;4994789;28;20605;-57
2024/01/09 08:19:04;;;;;;;597.40;301.90;;;;;;;-5.07;63.17;99034.75;4997759;28;20056;-57
2024/01/09 08:21:31;;;;;;;238.35;63.85;;;;;;;-5.05;62.58;99036.63;4995158;28;20532;-57
2024/01/09 08:23:57;;;;;;;379.58;213.38;;;;;;;-4.93;62.28;99031.63;4994821;28;20468;-57
2024/01/09 08:26:22;;;;;;;317.23;88.95;;;;;;;-4.85;62.00;99034.72;4990277;28;20385;-58
2024/01/09 08:28:47;;;;;;;265.30;71.25;;;;;;;-4.92;61.10;99043.53;4996646;28;20029;-57
2024/01/09 08:31:13;;;;;;;319.95;63.42;;;;;;;-4.73;61.02;99029.66;4997912;28;20481;-57
2024/01/09 08:33:39;;;;;;;315.25;64.97;;;;;;;-4.78;60.68;99025.91;4995210;28;20033;-57
2024/01/09 08:36:04;;;;;;;308.80;72.18;;;;;;;-4.65;60.19;99031.13;4999669;28;20060;-57
2024/01/09 08:38:30;;;;;;;270.98;94.72;;;;;;;-4.57;59.46;99029.13;5002179;28;20041;-57
2024/01/09 08:40:56;;;;;;;404.92;211.63;;;;;;;-4.62;58.83;99038.06;4997736;28;20034;-59
2024/01/09 08:43:22;;;;;;;335.38;82.95;;;;;;;-4.54;58.68;99029.34;4993424;28;20481;-60
2024/01/09 08:45:48;;;;;;;309.95;69.53;;;;;;;-4.61;58.40;99033.09;4995653;28;20187;-57
2024/01/09 08:48:14;;;;;;;339.92;66.85;;;;;;;-4.43;57.74;99027.59;4999165;28;20028;-60
2024/01/09 08:50:39;;;;;;;281.08;66.20;;;;;;;-4.33;57.12;99040.22;4996671;28;20414;-60
2024/01/09 08:53:04;;;;;;;287.73;67.70;;;;;;;-4.19;56.64;99037.78;4999261;28;20049;-60
2024/01/09 08:55:30;;;;;;;285.45;96.70;;;;;;;-4.09;56.55;99037.66;4997245;28;20442;-59
2024/01/09 08:57:55;;;;;;;264.80;72.18;;;;;;;-4.15;55.77;99041.44;5001484;28;20426;-59
2024/01/09 09:00:20;;;;;;;323.63;89.70;;;;;;;-4.07;55.37;99040.31;4996141;28;20033;-59
2024/01/09 09:02:46;;;;;;;267.98;90.75;;;;;;;-4.12;55.20;99042.53;4993319;28;20345;-58
2024/01/09 09:05:11;;;;;;;271.60;67.93;;;;;;;-4.08;54.71;99051.28;5002222;28;20077;-59
2024/01/09 09:07:37;;;;;;;279.60;119.13;;;;;;;-4.10;54.58;99050.25;5003540;28;20136;-60
2024/01/09 09:10:02;;;;;;;421.45;274.20;;;;;;;-3.97;54.71;99054.56;5001922;28;20025;-59
2024/01/09 09:12:28;;;;;;;351.60;119.70;;;;;;;-3.85;53.57;99058.00;5000986;28;20386;-59
2024/01/09 09:14:54;;;;;;;207.63;86.47;;;;;;;-3.94;52.85;99052.22;5002573;28;20117;-58
2024/01/09 09:17:19;;;;;;;389.83;104.63;;;;;;;-3.92;52.76;99058.31;4999546;28;20107;-59
2024/01/09 09:19:44;;;;;;;355.52;149.57;;;;;;;-3.81;52.48;99057.44;4999148;28;20384;-59
2024/01/09 09:22:11;;;;;;;221.82;65.53;;;;;;;-3.83;52.54;99053.88;5002131;28;20044;-60
2024/01/09 09:24:36;;;;;;;285.92;82.00;;;;;;;-3.84;51.70;99044.50;5001134;28;20026;-58
2024/01/09 09:27:02;;;;;;;345.75;163.75;;;;;;;-3.48;51.47;99048.63;5001158;28;20129;-60
2024/01/09 09:29:27;;;;;;;320.98;92.28;;;;;;;-3.43;51.08;99047.28;4998989;28;20048;-60
2024/01/09 09:31:53;;;;;;;257.83;66.30;;;;;;;-3.41;50.52;99043.19;4998651;28;20049;-59
2024/01/09 09:34:18;;;;;;;308.38;83.47;;;;;;;-3.34;50.18;99036.88;5000769;28;20022;-60
2024/01/09 09:36:43;;;;;;;239.13;101.97;;;;;;;-3.36;49.57;99038.41;5001756;28;20305;-58
2024/01/09 09:39:10;;;;;;;254.52;56.65;;;;;;;-3.34;48.94;99042.81;5000814;28;20028;-59
2024/01/09 09:41:36;;;;;;;224.45;54.75;;;;;;;-3.19;48.61;99042.13;5006752;28;20042;-59
2024/01/09 09:44:06;;;;;;;251.82;69.03;;;;;;;-3.31;48.42;99055.75;5001146;28;20034;-61
2024/01/09 09:46:34;;;;;;;219.32;55.58;;;;;;;-3.10;48.10;99037.66;5003239;28;20041;-59
2024/01/09 09:48:59;;;;;;;296.17;136.20;;;;;;;-3.09;47.46;99031.78;4999609;28;20030;-58
2024/01/09 09:51:25;;;;;;;364.58;93.55;;;;;;;-2.88;47.04;99032.38;4996282;28;20040;-60
2024/01/09 09:53:55;;;;;;;299.30;161.07;;;;;;;-2.83;46.35;99032.66;5001284;28;20620;-59
2024/01/09 09:56:21;;;;;;;283.55;90.30;;;;;;;-2.78;45.96;99023.66;4997134;28;20100;-58
2024/01/09 09:58:46;;;;;;;213.35;57.22;;;;;;;-2.67;45.90;99026.91;4999141;28;20258;-58
2024/01/09 10:01:13;;;;;;;270.92;108.75;;;;;;;-148.24;100.00;61531.34;4995772;28;20034;-59
2024/01/09 10:03:49;;;;;;;290.80;170.25;;;;;;;-148.24;100.00;61531.34;5001875;28;20033;-59
2024/01/09 10:06:17;;;;;;;507.25;247.20;;;;;;;-148.24;100.00;61531.34;4999670;28;20156;-58
2024/01/09 10:08:43;;;;;;;383.35;195.05;;;;;;;-148.24;100.00;61531.34;5000093;28;20518;-59
2024/01/09 10:11:09;;;;;;;233.73;60.15;;;;;;;-148.24;100.00;61531.34;5001703;28;20042;-59
2024/01/09 10:13:34;;;;;;;284.48;148.85;;;;;;;-148.24;100.00;61531.34;5001049;28;20271;-59
2024/01/09 10:16:01;;;;;;;212.80;64.20;;;;;;;-148.24;100.00;61531.34;5004370;28;20046;-57
2024/01/09 10:18:30;;;;;;;440.33;205.88;;;;;;;-148.24;100.00;61531.34;4999037;28;20030;-59
2024/01/09 10:20:58;;;;;;;333.50;208.35;;;;;;;-148.24;100.00;61531.34;4999484;28;20103;-59
2024/01/09 10:23:23;;;;;;;323.80;102.18;;;;;;;-148.24;100.00;61531.34;5000038;28;20083;-59
2024/01/09 10:25:50;;;;;;;376.90;115.68;;;;;;;-148.24;100.00;61531.34;4999469;28;20041;-59
2024/01/09 10:28:17;;;;;;;250.57;84.88;;;;;;;-148.24;100.00;61531.34;4998840;28;20022;-59
2024/01/09 10:30:43;;;;;;;212.48;51.55;;;;;;;-148.24;100.00;61531.34;5000075;28;20041;-59
2024/01/09 10:33:13;;;;;;;274.48;70.65;;;;;;;-148.24;100.00;61531.34;5000517;28;20550;-58
2024/01/09 10:35:39;;;;;;;242.80;79.13;;;;;;;-148.24;100.00;61531.34;5000166;28;20512;-59
2024/01/09 10:38:04;;;;;;;203.65;39.50;;;;;;;-148.24;100.00;61531.34;5001134;28;20022;-60
2024/01/09 10:40:30;;;;;;;312.90;44.88;;;;;;;-148.24;100.00;61531.34;4998547;28;20405;-61
2024/01/09 10:42:56;;;;;;;143.30;34.55;;;;;;;-148.24;100.00;61531.34;5000854;28;20073;-58
2024/01/09 10:45:26;;;;;;;300.65;80.32;;;;;;;-148.24;100.00;61531.34;4997710;28;20026;-60
2024/01/09 10:47:56;;;;;;;198.90;51.58;;;;;;;-148.24;100.00;61531.34;4998235;28;20030;-60
2024/01/09 10:50:21;;;;;;;235.40;49.30;;;;;;;-148.24;100.00;61531.34;4993587;28;20454;-60
2024/01/09 10:52:48;;;;;;;229.45;41.72;;;;;;;-148.24;100.00;61531.34;5001528;28;20533;-58
2024/01/09 10:55:15;;;;;;;191.27;38.75;;;;;;;-148.24;100.00;61531.34;5001741;28;20017;-60